Riverton Regional Airport Riverton US
ICAO: KRIW
IATA: RIW
Category: Medium
Scheduled Services: No

Elevation: 5525 ft
TransAlt. 18000 ft.

Airport Communications:
ASOS:121.425
CASPER RDO:122.2
CTAF/UNICOM:122.8

KRIW Zoom In..

If you have problems with the map follow the link
https://www.worldairports.se/pages/airport.php?
ICAO=KRIW

Runways:

(A) RW 01 length 4800 ft width 75 ft
---- / hdg 13

(B) RW 10 length 8204 ft width 150 ft
---- / hdg 103

(C) RW 19 length 4800 ft width 75 ft
---- / hdg 193

(D) RW 28 length 8204 ft width 150 ft
ILS 110.50 / hdg 283

Location; KRIW
Day. 05 / Time. 21.53 Zulu
* Altimeter: 30.11
* Temperature: -04° c. -24.8°f.
* Wind from: 000° Speed 00 kn.
Dewpoint: -08° c.
Visibility: 10 Statute Miles.
Clouds: Clear (automated report).

KRIW 052153Z AUTO 00000KT 10SM CLR M04/M08 A3011 RMK AO2 SLP251 T10391083


Wind - Calm.

 
 
jpsmedia worldairports.se 2019   terms of use